sensor_id;sensor_type;location;lat;lon;timestamp;pressure;altitude;pressure_sealevel;temperature;humidity
62655;BME280;48717;55.556;37.816;2023-04-16T00:02:14;100957.22;;;2.30;31.78
62655;BME280;48717;55.556;37.816;2023-04-16T00:04:42;100986.94;;;2.33;31.58
62655;BME280;48717;55.556;37.816;2023-04-16T00:07:09;101002.03;;;2.41;31.38
62655;BME280;48717;55.556;37.816;2023-04-16T00:09:36;100957.03;;;2.08;31.42
62655;BME280;48717;55.556;37.816;2023-04-16T00:12:04;101008.72;;;2.35;31.58
62655;BME280;48717;55.556;37.816;2023-04-16T00:14:32;101005.94;;;2.32;31.89
62655;BME280;48717;55.556;37.816;2023-04-16T00:16:59;100981.91;;;2.20;31.91
62655;BME280;48717;55.556;37.816;2023-04-16T00:19:26;100994.28;;;2.24;32.19
62655;BME280;48717;55.556;37.816;2023-04-16T00:21:53;100971.00;;;2.11;31.90
62655;BME280;48717;55.556;37.816;2023-04-16T00:24:21;101003.03;;;2.26;31.89
62655;BME280;48717;55.556;37.816;2023-04-16T00:26:48;101001.16;;;2.24;31.91
62655;BME280;48717;55.556;37.816;2023-04-16T00:29:15;100997.34;;;2.17;32.18
62655;BME280;48717;55.556;37.816;2023-04-16T00:31:42;100977.84;;;2.08;32.28
62655;BME280;48717;55.556;37.816;2023-04-16T00:34:09;100997.84;;;2.09;32.55
62655;BME280;48717;55.556;37.816;2023-04-16T00:36:37;100993.44;;;2.08;32.62
62655;BME280;48717;55.556;37.816;2023-04-16T00:39:04;100994.75;;;2.00;32.58
62655;BME280;48717;55.556;37.816;2023-04-16T00:41:31;101008.09;;;2.06;32.92
62655;BME280;48717;55.556;37.816;2023-04-16T00:43:58;100993.53;;;1.93;32.85
62655;BME280;48717;55.556;37.816;2023-04-16T00:46:26;101004.13;;;1.97;33.09
62655;BME280;48717;55.556;37.816;2023-04-16T00:48:54;100998.50;;;1.89;33.30
62655;BME280;48717;55.556;37.816;2023-04-16T00:51:22;100999.28;;;1.88;33.27
62655;BME280;48717;55.556;37.816;2023-04-16T00:53:49;100997.75;;;1.75;33.84
62655;BME280;48717;55.556;37.816;2023-04-16T00:56:16;100991.34;;;1.68;34.31
62655;BME280;48717;55.556;37.816;2023-04-16T00:58:44;100982.53;;;1.66;33.90
62655;BME280;48717;55.556;37.816;2023-04-16T01:01:12;101003.69;;;1.72;34.09
62655;BME280;48717;55.556;37.816;2023-04-16T01:03:45;100998.41;;;1.71;34.38
62655;BME280;48717;55.556;37.816;2023-04-16T01:06:13;100982.13;;;1.58;34.94
62655;BME280;48717;55.556;37.816;2023-04-16T01:08:41;100998.78;;;1.62;35.18
62655;BME280;48717;55.556;37.816;2023-04-16T01:11:09;100984.22;;;1.49;35.74
62655;BME280;48717;55.556;37.816;2023-04-16T01:13:37;100999.09;;;1.51;35.77
62655;BME280;48717;55.556;37.816;2023-04-16T01:16:08;100995.53;;;1.49;35.35
62655;BME280;48717;55.556;37.816;2023-04-16T01:18:36;100989.16;;;1.44;35.26
62655;BME280;48717;55.556;37.816;2023-04-16T01:21:04;101002.25;;;1.46;35.47
62655;BME280;48717;55.556;37.816;2023-04-16T01:23:32;100989.97;;;1.43;35.88
62655;BME280;48717;55.556;37.816;2023-04-16T01:25:59;100977.22;;;1.31;35.67
62655;BME280;48717;55.556;37.816;2023-04-16T01:28:26;101000.16;;;1.38;35.46
62655;BME280;48717;55.556;37.816;2023-04-16T01:30:53;100964.06;;;1.13;35.65
62655;BME280;48717;55.556;37.816;2023-04-16T01:33:34;100944.59;;;1.04;35.17
62655;BME280;48717;55.556;37.816;2023-04-16T01:36:01;101002.84;;;1.40;35.40
62655;BME280;48717;55.556;37.816;2023-04-16T01:38:29;100963.25;;;1.29;35.65
62655;BME280;48717;55.556;37.816;2023-04-16T01:40:57;100993.06;;;1.36;35.97
62655;BME280;48717;55.556;37.816;2023-04-16T01:43:25;100966.22;;;1.20;36.43
62655;BME280;48717;55.556;37.816;2023-04-16T01:46:20;100974.84;;;1.19;36.19
62655;BME280;48717;55.556;37.816;2023-04-16T01:48:45;100964.97;;;1.13;36.38
62655;BME280;48717;55.556;37.816;2023-04-16T01:51:13;100955.13;;;1.08;36.34
62655;BME280;48717;55.556;37.816;2023-04-16T01:53:40;100996.13;;;1.28;36.96
62655;BME280;48717;55.556;37.816;2023-04-16T01:56:07;101006.44;;;1.27;36.85
62655;BME280;48717;55.556;37.816;2023-04-16T01:58:34;100982.13;;;1.10;37.08
62655;BME280;48717;55.556;37.816;2023-04-16T02:01:02;101007.97;;;1.23;37.11
62655;BME280;48717;55.556;37.816;2023-04-16T02:03:30;101004.22;;;1.18;37.55
62655;BME280;48717;55.556;37.816;2023-04-16T02:05:58;100990.25;;;1.01;38.66
62655;BME280;48717;55.556;37.816;2023-04-16T02:08:27;100997.59;;;1.08;38.29
62655;BME280;48717;55.556;37.816;2023-04-16T02:10:56;101012.66;;;1.14;39.16
62655;BME280;48717;55.556;37.816;2023-04-16T02:13:24;101001.38;;;0.98;38.33
62655;BME280;48717;55.556;37.816;2023-04-16T02:15:52;101006.94;;;1.04;38.89
62655;BME280;48717;55.556;37.816;2023-04-16T02:18:48;100985.09;;;0.86;37.71
62655;BME280;48717;55.556;37.816;2023-04-16T02:21:18;100980.06;;;0.89;37.86
62655;BME280;48717;55.556;37.816;2023-04-16T02:23:46;100981.75;;;0.88;37.59
62655;BME280;48717;55.556;37.816;2023-04-16T02:26:22;100975.69;;;0.88;37.99
62655;BME280;48717;55.556;37.816;2023-04-16T02:28:49;100999.59;;;0.97;37.27
62655;BME280;48717;55.556;37.816;2023-04-16T02:31:19;101008.63;;;1.04;38.19
62655;BME280;48717;55.556;37.816;2023-04-16T02:33:48;101010.16;;;1.00;38.56
62655;BME280;48717;55.556;37.816;2023-04-16T02:36:15;100952.53;;;0.76;38.55
62655;BME280;48717;55.556;37.816;2023-04-16T02:38:42;100991.72;;;0.96;38.12
62655;BME280;48717;55.556;37.816;2023-04-16T02:41:10;100975.97;;;0.77;38.48
62655;BME280;48717;55.556;37.816;2023-04-16T02:43:37;100991.00;;;0.83;38.12
62655;BME280;48717;55.556;37.816;2023-04-16T02:46:04;101002.63;;;0.90;38.65
62655;BME280;48717;55.556;37.816;2023-04-16T02:48:31;100995.13;;;0.80;38.45
62655;BME280;48717;55.556;37.816;2023-04-16T02:50:59;100980.81;;;0.71;38.60
62655;BME280;48717;55.556;37.816;2023-04-16T02:53:26;100982.44;;;0.69;38.14
62655;BME280;48717;55.556;37.816;2023-04-16T02:55:54;101020.03;;;0.91;37.83
62655;BME280;48717;55.556;37.816;2023-04-16T02:58:23;101021.00;;;0.93;38.00
62655;BME280;48717;55.556;37.816;2023-04-16T03:00:52;101020.19;;;0.94;37.65
62655;BME280;48717;55.556;37.816;2023-04-16T03:03:19;101012.88;;;0.87;37.77
62655;BME280;48717;55.556;37.816;2023-04-16T03:05:47;100959.50;;;0.62;38.15
62655;BME280;48717;55.556;37.816;2023-04-16T03:08:15;101023.78;;;0.96;38.39
62655;BME280;48717;55.556;37.816;2023-04-16T03:10:43;100975.97;;;0.77;38.41
62655;BME280;48717;55.556;37.816;2023-04-16T03:13:10;101020.38;;;0.97;38.37
62655;BME280;48717;55.556;37.816;2023-04-16T03:15:37;101008.94;;;0.94;37.71
62655;BME280;48717;55.556;37.816;2023-04-16T03:18:05;100988.06;;;0.77;37.97
62655;BME280;48717;55.556;37.816;2023-04-16T03:20:32;101018.75;;;0.99;37.72
62655;BME280;48717;55.556;37.816;2023-04-16T03:22:59;100989.22;;;0.82;38.27
62655;BME280;48717;55.556;37.816;2023-04-16T03:25:27;101029.31;;;1.02;38.08
62655;BME280;48717;55.556;37.816;2023-04-16T03:27:55;101014.38;;;0.98;38.22
62655;BME280;48717;55.556;37.816;2023-04-16T03:30:22;101023.31;;;1.03;37.47
62655;BME280;48717;55.556;37.816;2023-04-16T03:32:50;101000.56;;;0.99;37.81
62655;BME280;48717;55.556;37.816;2023-04-16T03:35:18;101029.66;;;1.09;38.55
62655;BME280;48717;55.556;37.816;2023-04-16T03:37:45;100983.69;;;0.91;38.31
62655;BME280;48717;55.556;37.816;2023-04-16T03:40:12;101020.34;;;1.12;38.48
62655;BME280;48717;55.556;37.816;2023-04-16T03:42:40;101013.19;;;1.08;38.32
62655;BME280;48717;55.556;37.816;2023-04-16T03:45:07;101014.44;;;1.15;37.70
62655;BME280;48717;55.556;37.816;2023-04-16T03:47:36;101015.41;;;1.17;38.30
62655;BME280;48717;55.556;37.816;2023-04-16T03:50:04;101013.16;;;1.23;37.34
62655;BME280;48717;55.556;37.816;2023-04-16T03:52:31;100976.91;;;1.10;37.69
62655;BME280;48717;55.556;37.816;2023-04-16T03:54:58;100987.72;;;1.17;38.25
62655;BME280;48717;55.556;37.816;2023-04-16T03:57:31;101032.47;;;1.43;37.91
62655;BME280;48717;55.556;37.816;2023-04-16T04:00:05;101022.84;;;1.58;37.44
62655;BME280;48717;55.556;37.816;2023-04-16T04:02:55;101023.34;;;1.83;36.80
62655;BME280;48717;55.556;37.816;2023-04-16T04:05:23;101025.00;;;2.15;36.74
62655;BME280;48717;55.556;37.816;2023-04-16T04:07:51;101019.94;;;2.51;36.03
62655;BME280;48717;55.556;37.816;2023-04-16T04:10:18;100994.97;;;2.73;36.16
62655;BME280;48717;55.556;37.816;2023-04-16T04:12:45;101013.59;;;3.17;34.68
62655;BME280;48717;55.556;37.816;2023-04-16T04:15:13;101007.16;;;3.47;34.97
62655;BME280;48717;55.556;37.816;2023-04-16T04:17:41;101009.56;;;3.80;35.04
62655;BME280;48717;55.556;37.816;2023-04-16T04:20:09;100960.13;;;3.83;33.89
62655;BME280;48717;55.556;37.816;2023-04-16T04:22:36;100990.81;;;4.28;33.79
62655;BME280;48717;55.556;37.816;2023-04-16T04:25:04;101006.53;;;4.71;32.44
62655;BME280;48717;55.556;37.816;2023-04-16T04:27:32;100977.91;;;4.95;31.82
62655;BME280;48717;55.556;37.816;2023-04-16T04:29:59;101022.91;;;5.54;31.23
62655;BME280;48717;55.556;37.816;2023-04-16T04:32:26;101010.38;;;5.92;30.11
62655;BME280;48717;55.556;37.816;2023-04-16T04:34:53;100987.59;;;6.12;29.15
62655;BME280;48717;55.556;37.816;2023-04-16T04:37:21;101000.16;;;6.47;28.72
62655;BME280;48717;55.556;37.816;2023-04-16T04:39:48;100986.09;;;6.45;28.11
62655;BME280;48717;55.556;37.816;2023-04-16T04:42:16;100993.72;;;6.63;28.30
62655;BME280;48717;55.556;37.816;2023-04-16T04:44:44;100992.06;;;6.67;28.87
62655;BME280;48717;55.556;37.816;2023-04-16T04:47:13;101010.41;;;6.93;27.41
62655;BME280;48717;55.556;37.816;2023-04-16T04:49:40;100995.94;;;7.04;27.42
62655;BME280;48717;55.556;37.816;2023-04-16T04:52:07;100999.03;;;7.20;27.07
62655;BME280;48717;55.556;37.816;2023-04-16T04:54:35;101009.13;;;7.35;27.12
62655;BME280;48717;55.556;37.816;2023-04-16T04:57:03;101008.72;;;7.50;26.28
62655;BME280;48717;55.556;37.816;2023-04-16T04:59:31;100982.59;;;6.98;25.78
62655;BME280;48717;55.556;37.816;2023-04-16T05:01:59;101006.03;;;6.66;26.70
62655;BME280;48717;55.556;37.816;2023-04-16T05:04:26;100970.78;;;6.32;26.52
62655;BME280;48717;55.556;37.816;2023-04-16T05:06:53;101008.50;;;6.61;26.99
62655;BME280;48717;55.556;37.816;2023-04-16T05:09:21;100944.72;;;6.61;26.97
62655;BME280;48717;55.556;37.816;2023-04-16T05:11:48;101002.22;;;7.10;27.03
62655;BME280;48717;55.556;37.816;2023-04-16T05:14:15;100980.78;;;6.96;26.75
62655;BME280;48717;55.556;37.816;2023-04-16T05:16:42;101007.47;;;7.10;26.96
62655;BME280;48717;55.556;37.816;2023-04-16T05:19:10;100996.38;;;6.91;26.67
62655;BME280;48717;55.556;37.816;2023-04-16T05:21:37;101000.91;;;7.24;26.41
62655;BME280;48717;55.556;37.816;2023-04-16T05:24:05;101000.41;;;7.36;25.78
62655;BME280;48717;55.556;37.816;2023-04-16T05:26:32;101003.00;;;7.35;25.55
62655;BME280;48717;55.556;37.816;2023-04-16T05:28:59;100984.53;;;7.31;25.28
62655;BME280;48717;55.556;37.816;2023-04-16T05:31:27;101000.09;;;7.54;25.11
62655;BME280;48717;55.556;37.816;2023-04-16T05:33:54;100984.25;;;7.51;25.16
62655;BME280;48717;55.556;37.816;2023-04-16T05:36:21;100963.03;;;7.74;24.64
62655;BME280;48717;55.556;37.816;2023-04-16T05:38:48;100977.97;;;7.75;24.97
62655;BME280;48717;55.556;37.816;2023-04-16T05:41:16;100955.97;;;7.71;24.62
62655;BME280;48717;55.556;37.816;2023-04-16T05:43:43;101002.72;;;7.83;24.12
62655;BME280;48717;55.556;37.816;2023-04-16T05:46:14;101004.59;;;7.88;24.09
62655;BME280;48717;55.556;37.816;2023-04-16T05:48:42;101002.78;;;7.87;24.67
62655;BME280;48717;55.556;37.816;2023-04-16T05:51:09;101015.63;;;8.06;24.17
62655;BME280;48717;55.556;37.816;2023-04-16T05:53:37;100992.94;;;8.42;23.04
62655;BME280;48717;55.556;37.816;2023-04-16T05:56:04;100988.16;;;8.95;22.72
62655;BME280;48717;55.556;37.816;2023-04-16T05:58:31;100993.78;;;9.49;22.49
62655;BME280;48717;55.556;37.816;2023-04-16T06:01:00;100983.94;;;9.80;21.89
62655;BME280;48717;55.556;37.816;2023-04-16T06:03:27;100966.19;;;10.17;21.52
62655;BME280;48717;55.556;37.816;2023-04-16T06:05:54;100976.53;;;10.53;21.41
62655;BME280;48717;55.556;37.816;2023-04-16T06:08:21;100967.47;;;10.38;21.11
62655;BME280;48717;55.556;37.816;2023-04-16T06:10:50;100961.53;;;10.49;21.30
62655;BME280;48717;55.556;37.816;2023-04-16T06:13:20;100949.63;;;10.73;20.01
62655;BME280;48717;55.556;37.816;2023-04-16T06:15:47;100967.22;;;11.29;19.27
62655;BME280;48717;55.556;37.816;2023-04-16T06:18:15;100986.38;;;11.81;18.89
62655;BME280;48717;55.556;37.816;2023-04-16T06:20:42;100961.13;;;11.35;18.51
62655;BME280;48717;55.556;37.816;2023-04-16T06:23:09;100978.97;;;11.52;18.73
62655;BME280;48717;55.556;37.816;2023-04-16T06:25:36;100966.16;;;11.81;18.57
62655;BME280;48717;55.556;37.816;2023-04-16T06:28:04;100960.53;;;12.31;17.76
62655;BME280;48717;55.556;37.816;2023-04-16T06:30:31;100969.97;;;13.01;17.96
62655;BME280;48717;55.556;37.816;2023-04-16T06:32:59;100964.94;;;13.42;17.06
62655;BME280;48717;55.556;37.816;2023-04-16T06:35:27;100968.47;;;13.41;16.70
62655;BME280;48717;55.556;37.816;2023-04-16T06:37:54;100952.47;;;13.22;16.92
62655;BME280;48717;55.556;37.816;2023-04-16T06:40:21;100948.44;;;12.58;17.45
62655;BME280;48717;55.556;37.816;2023-04-16T06:42:48;100960.88;;;12.65;17.13
62655;BME280;48717;55.556;37.816;2023-04-16T06:45:16;100968.94;;;12.81;17.48
62655;BME280;48717;55.556;37.816;2023-04-16T06:47:43;100983.28;;;13.09;16.93
62655;BME280;48717;55.556;37.816;2023-04-16T06:50:10;100965.22;;;12.60;16.65
62655;BME280;48717;55.556;37.816;2023-04-16T06:52:38;100981.44;;;12.06;17.05
62655;BME280;48717;55.556;37.816;2023-04-16T06:55:05;100956.50;;;11.85;17.12
62655;BME280;48717;55.556;37.816;2023-04-16T06:57:35;100962.06;;;12.07;17.29
62655;BME280;48717;55.556;37.816;2023-04-16T07:00:03;100943.84;;;12.36;17.40
62655;BME280;48717;55.556;37.816;2023-04-16T07:02:31;100960.06;;;12.74;16.66
62655;BME280;48717;55.556;37.816;2023-04-16T07:04:58;100955.72;;;12.84;16.91
62655;BME280;48717;55.556;37.816;2023-04-16T07:07:26;100949.84;;;13.25;16.32
62655;BME280;48717;55.556;37.816;2023-04-16T07:09:53;100932.28;;;13.44;15.77
62655;BME280;48717;55.556;37.816;2023-04-16T07:12:20;100961.66;;;13.90;15.84
62655;BME280;48717;55.556;37.816;2023-04-16T07:14:49;100936.97;;;14.00;15.79
62655;BME280;48717;55.556;37.816;2023-04-16T07:17:16;100963.56;;;14.31;14.86
62655;BME280;48717;55.556;37.816;2023-04-16T07:19:44;100976.78;;;14.27;15.20
62655;BME280;48717;55.556;37.816;2023-04-16T07:22:11;100965.31;;;14.39;14.76
62655;BME280;48717;55.556;37.816;2023-04-16T07:24:38;100953.81;;;14.35;14.64
62655;BME280;48717;55.556;37.816;2023-04-16T07:27:05;100948.53;;;14.54;14.48
62655;BME280;48717;55.556;37.816;2023-04-16T07:29:32;100935.28;;;14.58;14.33
62655;BME280;48717;55.556;37.816;2023-04-16T07:32:03;100921.97;;;14.72;14.36
62655;BME280;48717;55.556;37.816;2023-04-16T07:34:31;100947.66;;;15.03;13.51
62655;BME280;48717;55.556;37.816;2023-04-16T07:36:58;100948.56;;;14.86;13.13
62655;BME280;48717;55.556;37.816;2023-04-16T07:39:25;100918.47;;;14.92;13.09
62655;BME280;48717;55.556;37.816;2023-04-16T07:41:52;100942.25;;;15.44;13.50
62655;BME280;48717;55.556;37.816;2023-04-16T07:44:19;100933.50;;;15.09;13.37
62655;BME280;48717;55.556;37.816;2023-04-16T07:46:54;100937.06;;;14.81;13.59
62655;BME280;48717;55.556;37.816;2023-04-16T07:49:21;100914.88;;;14.26;13.58
62655;BME280;48717;55.556;37.816;2023-04-16T07:51:49;100928.91;;;13.81;14.28
62655;BME280;48717;55.556;37.816;2023-04-16T07:54:19;100961.66;;;13.93;13.86
62655;BME280;48717;55.556;37.816;2023-04-16T07:56:46;100951.03;;;13.90;14.26
62655;BME280;48717;55.556;37.816;2023-04-16T07:59:16;100939.13;;;13.08;14.54
62655;BME280;48717;55.556;37.816;2023-04-16T08:01:50;100917.94;;;13.08;15.70
62655;BME280;48717;55.556;37.816;2023-04-16T08:04:18;100897.59;;;12.99;14.38
62655;BME280;48717;55.556;37.816;2023-04-16T08:06:53;100918.88;;;13.12;14.31
62655;BME280;48717;55.556;37.816;2023-04-16T08:09:22;100932.25;;;13.40;14.45
62655;BME280;48717;55.556;37.816;2023-04-16T08:12:02;100922.53;;;13.42;15.90
62655;BME280;48717;55.556;37.816;2023-04-16T08:14:44;100879.34;;;13.49;16.92
62655;BME280;48717;55.556;37.816;2023-04-16T08:17:19;100953.75;;;14.10;14.84
62655;BME280;48717;55.556;37.816;2023-04-16T08:19:46;100926.41;;;14.56;13.83
62655;BME280;48717;55.556;37.816;2023-04-16T08:22:13;100897.22;;;14.72;14.22
62655;BME280;48717;55.556;37.816;2023-04-16T08:24:40;100912.16;;;15.32;13.07
62655;BME280;48717;55.556;37.816;2023-04-16T08:27:08;100867.75;;;15.69;12.17
62655;BME280;48717;55.556;37.816;2023-04-16T08:29:45;100891.53;;;16.00;12.08
62655;BME280;48717;55.556;37.816;2023-04-16T08:32:18;100910.94;;;16.14;12.56
62655;BME280;48717;55.556;37.816;2023-04-16T08:34:45;100889.88;;;15.72;12.49
62655;BME280;48717;55.556;37.816;2023-04-16T08:37:12;100872.16;;;15.71;12.32
62655;BME280;48717;55.556;37.816;2023-04-16T08:39:39;100906.59;;;16.01;11.65
62655;BME280;48717;55.556;37.816;2023-04-16T08:42:12;100889.66;;;16.14;12.31
62655;BME280;48717;55.556;37.816;2023-04-16T08:44:47;100898.50;;;16.15;12.22
62655;BME280;48717;55.556;37.816;2023-04-16T08:47:15;100885.25;;;16.10;12.34
62655;BME280;48717;55.556;37.816;2023-04-16T08:49:43;100892.41;;;15.89;12.32
62655;BME280;48717;55.556;37.816;2023-04-16T08:52:18;100880.75;;;16.18;12.56
62655;BME280;48717;55.556;37.816;2023-04-16T08:54:59;100884.84;;;16.57;12.15
62655;BME280;48717;55.556;37.816;2023-04-16T08:57:38;100858.81;;;16.89;12.19
62655;BME280;48717;55.556;37.816;2023-04-16T09:00:07;100848.84;;;17.11;12.25
62655;BME280;48717;55.556;37.816;2023-04-16T09:02:35;100852.88;;;17.46;11.86
62655;BME280;48717;55.556;37.816;2023-04-16T09:05:04;100868.38;;;17.82;11.40
62655;BME280;48717;55.556;37.816;2023-04-16T09:07:33;100880.00;;;17.77;10.76
62655;BME280;48717;55.556;37.816;2023-04-16T09:10:02;100878.72;;;18.04;10.64
62655;BME280;48717;55.556;37.816;2023-04-16T09:12:31;100890.47;;;17.92;10.87
62655;BME280;48717;55.556;37.816;2023-04-16T09:14:59;100872.53;;;16.47;10.94
62655;BME280;48717;55.556;37.816;2023-04-16T09:17:33;100878.13;;;16.12;12.49
62655;BME280;48717;55.556;37.816;2023-04-16T09:20:01;100869.03;;;16.41;11.94
62655;BME280;48717;55.556;37.816;2023-04-16T09:22:31;100861.72;;;16.65;11.65
62655;BME280;48717;55.556;37.816;2023-04-16T09:24:58;100869.28;;;17.12;11.54
62655;BME280;48717;55.556;37.816;2023-04-16T09:27:37;100856.88;;;17.09;11.29
62655;BME280;48717;55.556;37.816;2023-04-16T09:30:35;100833.59;;;16.36;11.58
62655;BME280;48717;55.556;37.816;2023-04-16T09:33:18;100869.03;;;16.44;12.23
62655;BME280;48717;55.556;37.816;2023-04-16T09:35:50;100852.06;;;16.52;12.12
62655;BME280;48717;55.556;37.816;2023-04-16T09:38:19;100864.28;;;16.75;12.04
62655;BME280;48717;55.556;37.816;2023-04-16T09:40:46;100865.53;;;16.36;12.29
62655;BME280;48717;55.556;37.816;2023-04-16T09:43:16;100869.50;;;15.66;13.26
62655;BME280;48717;55.556;37.816;2023-04-16T09:45:48;100867.78;;;15.56;12.54
62655;BME280;48717;55.556;37.816;2023-04-16T09:48:27;100864.88;;;16.04;12.15
62655;BME280;48717;55.556;37.816;2023-04-16T09:50:55;100844.19;;;16.39;12.24
62655;BME280;48717;55.556;37.816;2023-04-16T09:53:24;100836.00;;;16.61;11.78
62655;BME280;48717;55.556;37.816;2023-04-16T09:56:00;100813.22;;;16.32;11.63
62655;BME280;48717;55.556;37.816;2023-04-16T09:58:28;100806.00;;;16.45;11.97
62655;BME280;48717;55.556;37.816;2023-04-16T10:01:09;100871.78;;;16.29;11.67
62655;BME280;48717;55.556;37.816;2023-04-16T10:03:38;100861.25;;;16.16;12.61
62655;BME280;48717;55.556;37.816;2023-04-16T10:08:51;100859.91;;;15.36;12.88
62655;BME280;48717;55.556;37.816;2023-04-16T10:11:45;100763.50;;;15.09;14.36
62655;BME280;48717;55.556;37.816;2023-04-16T10:14:18;100741.06;;;15.58;12.53
62655;BME280;48717;55.556;37.816;2023-04-16T10:17:12;100733.28;;;15.33;12.00
62655;BME280;48717;55.556;37.816;2023-04-16T10:19:55;100784.44;;;15.66;12.91
62655;BME280;48717;55.556;37.816;2023-04-16T10:22:42;100827.16;;;16.62;12.10
62655;BME280;48717;55.556;37.816;2023-04-16T10:25:21;100851.25;;;16.43;12.68
62655;BME280;48717;55.556;37.816;2023-04-16T10:28:06;100688.00;;;15.46;11.57
62655;BME280;48717;55.556;37.816;2023-04-16T10:30:42;100699.38;;;15.63;12.40
62655;BME280;48717;55.556;37.816;2023-04-16T10:33:30;100788.53;;;16.17;12.06
62655;BME280;48717;55.556;37.816;2023-04-16T10:36:22;100827.34;;;17.25;11.88
62655;BME280;48717;55.556;37.816;2023-04-16T10:39:00;100722.69;;;17.15;11.21
62655;BME280;48717;55.556;37.816;2023-04-16T10:41:44;100847.69;;;17.34;11.61
62655;BME280;48717;55.556;37.816;2023-04-16T10:44:18;100786.13;;;17.53;11.41
62655;BME280;48717;55.556;37.816;2023-04-16T10:46:56;100686.47;;;17.60;11.25
62655;BME280;48717;55.556;37.816;2023-04-16T10:49:26;100704.78;;;17.23;11.68
62655;BME280;48717;55.556;37.816;2023-04-16T10:52:15;100676.00;;;17.47;11.21
62655;BME280;48717;55.556;37.816;2023-04-16T10:54:43;100708.69;;;18.14;10.87
62655;BME280;48717;55.556;37.816;2023-04-16T10:57:20;100687.66;;;18.46;10.40
62655;BME280;48717;55.556;37.816;2023-04-16T10:59:51;100828.50;;;18.82;10.70
62655;BME280;48717;55.556;37.816;2023-04-16T11:02:27;100776.56;;;17.36;11.33
62655;BME280;48717;55.556;37.816;2023-04-16T11:04:56;100824.00;;;17.07;11.62
62655;BME280;48717;55.556;37.816;2023-04-16T11:07:33;100818.88;;;16.89;11.56
62655;BME280;48717;55.556;37.816;2023-04-16T11:10:11;100817.63;;;16.36;12.35
62655;BME280;48717;55.556;37.816;2023-04-16T11:12:41;100806.06;;;17.86;11.68
62655;BME280;48717;55.556;37.816;2023-04-16T11:15:16;100802.09;;;18.66;11.49
62655;BME280;48717;55.556;37.816;2023-04-16T11:17:50;100798.13;;;19.71;10.27
62655;BME280;48717;55.556;37.816;2023-04-16T11:22:48;100799.75;;;20.51;9.68
62655;BME280;48717;55.556;37.816;2023-04-16T11:25:24;100787.75;;;20.99;9.59
62655;BME280;48717;55.556;37.816;2023-04-16T11:27:52;100781.84;;;22.31;8.87
62655;BME280;48717;55.556;37.816;2023-04-16T11:30:47;100810.13;;;22.41;8.66
62655;BME280;48717;55.556;37.816;2023-04-16T11:33:14;100786.31;;;22.30;8.49
62655;BME280;48717;55.556;37.816;2023-04-16T11:35:42;100774.72;;;23.05;8.54
62655;BME280;48717;55.556;37.816;2023-04-16T11:38:11;100770.28;;;23.52;8.45
62655;BME280;48717;55.556;37.816;2023-04-16T11:40:41;100730.53;;;24.02;7.68
62655;BME280;48717;55.556;37.816;2023-04-16T11:43:12;100765.38;;;23.39;7.94
62655;BME280;48717;55.556;37.816;2023-04-16T11:48:22;100764.72;;;22.08;8.71
62655;BME280;48717;55.556;37.816;2023-04-16T11:50:56;100766.63;;;21.47;9.17
62655;BME280;48717;55.556;37.816;2023-04-16T11:53:23;100761.47;;;21.70;8.83
62655;BME280;48717;55.556;37.816;2023-04-16T11:55:51;100756.81;;;21.76;8.86
62655;BME280;48717;55.556;37.816;2023-04-16T11:58:18;100732.81;;;21.43;8.88
62655;BME280;48717;55.556;37.816;2023-04-16T12:00:48;100727.06;;;20.97;9.38
62655;BME280;48717;55.556;37.816;2023-04-16T12:03:36;100743.19;;;21.54;8.93
62655;BME280;48717;55.556;37.816;2023-04-16T12:06:07;100722.47;;;21.86;9.15
62655;BME280;48717;55.556;37.816;2023-04-16T12:08:35;100750.59;;;22.28;8.54
62655;BME280;48717;55.556;37.816;2023-04-16T12:11:03;100724.94;;;22.45;8.52
62655;BME280;48717;55.556;37.816;2023-04-16T12:13:30;100724.53;;;23.52;7.96
62655;BME280;48717;55.556;37.816;2023-04-16T12:16:16;100719.47;;;24.30;8.02
62655;BME280;48717;55.556;37.816;2023-04-16T12:19:01;100685.88;;;24.77;7.17
62655;BME280;48717;55.556;37.816;2023-04-16T12:21:41;100717.97;;;25.41;6.89
62655;BME280;48717;55.556;37.816;2023-04-16T12:24:10;100721.75;;;25.37;7.04
62655;BME280;48717;55.556;37.816;2023-04-16T12:26:44;100693.56;;;24.47;7.46
62655;BME280;48717;55.556;37.816;2023-04-16T12:29:20;100696.16;;;23.65;7.95
62655;BME280;48717;55.556;37.816;2023-04-16T12:31:49;100707.03;;;23.62;7.82
62655;BME280;48717;55.556;37.816;2023-04-16T12:34:18;100694.28;;;23.67;7.94
62655;BME280;48717;55.556;37.816;2023-04-16T12:36:47;100713.81;;;23.50;7.90
62655;BME280;48717;55.556;37.816;2023-04-16T12:39:14;100683.94;;;24.41;7.52
62655;BME280;48717;55.556;37.816;2023-04-16T12:41:42;100691.59;;;24.10;7.74
62655;BME280;48717;55.556;37.816;2023-04-16T12:44:14;100709.19;;;23.54;7.68
62655;BME280;48717;55.556;37.816;2023-04-16T12:46:43;100698.97;;;24.05;7.60
62655;BME280;48717;55.556;37.816;2023-04-16T12:49:10;100669.81;;;24.36;7.37
62655;BME280;48717;55.556;37.816;2023-04-16T12:51:38;100677.75;;;24.98;7.02
62655;BME280;48717;55.556;37.816;2023-04-16T12:54:06;100694.38;;;24.89;7.42
62655;BME280;48717;55.556;37.816;2023-04-16T12:56:34;100688.78;;;25.31;7.23
62655;BME280;48717;55.556;37.816;2023-04-16T12:59:43;100644.88;;;23.89;7.56
62655;BME280;48717;55.556;37.816;2023-04-16T13:02:12;100622.19;;;23.95;8.07
62655;BME280;48717;55.556;37.816;2023-04-16T13:04:40;100699.13;;;24.63;7.69
62655;BME280;48717;55.556;37.816;2023-04-16T13:07:07;100672.19;;;24.63;7.54
62655;BME280;48717;55.556;37.816;2023-04-16T13:09:34;100684.28;;;24.73;7.49